createdAt,value
2018-03-23T00:01:39.977Z,3.00
2018-03-23T00:04:06.237Z,3.00
2018-03-23T00:06:32.433Z,2.90
2018-03-23T00:08:58.660Z,3.20
2018-03-23T00:11:25.268Z,3.50
2018-03-23T00:13:51.462Z,3.50
2018-03-23T00:16:17.663Z,3.40
2018-03-23T00:18:43.892Z,3.30
2018-03-23T00:21:10.067Z,3.30
2018-03-23T00:23:36.286Z,3.40
2018-03-23T00:26:02.494Z,3.40
2018-03-23T00:28:28.718Z,3.40
2018-03-23T00:30:54.906Z,3.40
2018-03-23T00:33:21.094Z,3.10
2018-03-23T00:35:47.304Z,2.90
2018-03-23T00:38:13.523Z,3.10
2018-03-23T00:40:39.708Z,3.10
2018-03-23T00:43:06.928Z,2.90
2018-03-23T00:45:33.146Z,3.10
2018-03-23T00:47:59.341Z,3.10
2018-03-23T00:50:25.575Z,3.20
2018-03-23T00:52:51.783Z,3.00
2018-03-23T00:55:17.961Z,3.10
2018-03-23T00:57:44.202Z,3.10
2018-03-23T01:00:11.388Z,3.10
2018-03-23T01:02:37.956Z,3.00
2018-03-23T01:05:04.226Z,2.90
2018-03-23T01:07:30.416Z,2.90
2018-03-23T01:09:57.651Z,3.00
2018-03-23T01:12:23.867Z,2.90
2018-03-23T01:14:50.043Z,3.20
2018-03-23T01:17:16.278Z,3.30
2018-03-23T01:19:42.487Z,3.50
2018-03-23T01:22:08.731Z,3.40
2018-03-23T01:24:34.935Z,3.50
2018-03-23T01:27:01.135Z,3.60
2018-03-23T01:29:27.733Z,3.00
2018-03-23T01:31:53.940Z,3.10
2018-03-23T01:34:20.184Z,3.00
2018-03-23T01:36:46.388Z,3.30
2018-03-23T01:39:12.568Z,3.20
2018-03-23T01:41:38.779Z,3.30
2018-03-23T01:44:04.973Z,3.20
2018-03-23T01:46:31.236Z,3.00
2018-03-23T01:48:57.426Z,2.90
2018-03-23T01:51:23.683Z,3.10
2018-03-23T01:53:49.871Z,3.20
2018-03-23T01:56:16.080Z,3.20
2018-03-23T01:58:42.661Z,3.40
2018-03-23T02:01:08.867Z,3.40
2018-03-23T02:03:35.052Z,3.50
2018-03-23T02:06:01.266Z,3.70
2018-03-23T02:08:27.459Z,3.70
2018-03-23T02:10:53.643Z,3.40
2018-03-23T02:13:20.270Z,3.60
2018-03-23T02:15:46.825Z,3.70
2018-03-23T02:18:13.032Z,3.70
2018-03-23T02:20:39.306Z,3.60
2018-03-23T02:23:05.495Z,3.20
2018-03-23T02:25:31.727Z,3.10
2018-03-23T02:27:57.955Z,3.20
2018-03-23T02:30:24.542Z,3.40
2018-03-23T02:32:50.750Z,3.40
2018-03-23T02:35:16.995Z,3.60
2018-03-23T02:37:43.230Z,3.50
2018-03-23T02:40:09.414Z,3.40
2018-03-23T02:42:35.662Z,3.70
2018-03-23T02:45:02.695Z,3.50
2018-03-23T02:47:28.933Z,3.60
2018-03-23T02:49:55.439Z,3.80
2018-03-23T02:52:21.766Z,3.80
2018-03-23T02:54:48.432Z,3.80
2018-03-23T02:57:14.655Z,3.80
2018-03-23T02:59:40.847Z,3.80
2018-03-23T03:02:07.083Z,3.60
2018-03-23T03:04:33.671Z,3.60
2018-03-23T03:06:59.856Z,3.50
2018-03-23T03:09:26.074Z,3.60
2018-03-23T03:11:52.299Z,3.50
2018-03-23T03:14:18.572Z,3.60
2018-03-23T03:16:44.816Z,3.50
2018-03-23T03:19:11.005Z,3.30
2018-03-23T03:21:37.186Z,3.20
2018-03-23T03:24:04.004Z,3.10
2018-03-23T03:26:30.239Z,3.10
2018-03-23T03:28:57.363Z,3.20
2018-03-23T03:31:23.565Z,3.40
2018-03-23T03:33:50.444Z,3.50
2018-03-23T03:36:16.635Z,3.50
2018-03-23T03:38:42.842Z,3.60
2018-03-23T03:41:09.057Z,3.50
2018-03-23T03:43:35.256Z,3.60
2018-03-23T03:46:01.464Z,3.60
2018-03-23T03:48:27.699Z,3.70
2018-03-23T03:50:53.886Z,3.70
2018-03-23T03:53:20.451Z,3.60
2018-03-23T03:55:46.677Z,3.60
2018-03-23T03:58:12.874Z,3.80
2018-03-23T04:00:39.075Z,4.00
2018-03-23T04:03:05.309Z,4.20
2018-03-23T04:05:31.505Z,4.30
2018-03-23T04:07:57.702Z,4.00
2018-03-23T04:10:23.940Z,4.00
2018-03-23T04:12:50.523Z,3.70
2018-03-23T04:15:16.717Z,3.70
2018-03-23T04:17:42.951Z,3.70
2018-03-23T04:20:09.180Z,3.50
2018-03-23T04:22:35.371Z,3.60
2018-03-23T04:25:01.606Z,3.50
2018-03-23T04:27:27.841Z,3.30
2018-03-23T04:29:54.414Z,3.20
2018-03-23T04:32:20.621Z,3.20
2018-03-23T04:34:46.799Z,3.30
2018-03-23T04:37:12.979Z,3.20
2018-03-23T04:39:39.205Z,3.10
2018-03-23T04:42:05.403Z,3.40
2018-03-23T04:44:31.602Z,3.50
2018-03-23T04:46:57.839Z,3.50
2018-03-23T04:49:24.067Z,3.50
2018-03-23T04:51:50.256Z,3.50
2018-03-23T04:54:16.497Z,3.30
2018-03-23T04:56:42.701Z,3.40
2018-03-23T04:59:09.891Z,3.30
2018-03-23T05:01:36.154Z,3.30
2018-03-23T05:04:02.750Z,3.50
2018-03-23T05:06:29.051Z,3.50
2018-03-23T05:08:55.612Z,3.50
2018-03-23T05:11:21.811Z,3.70
2018-03-23T05:13:48.003Z,3.60
2018-03-23T05:16:14.583Z,3.30
2018-03-23T05:18:40.994Z,3.30
2018-03-23T05:21:07.199Z,3.50
2018-03-23T05:23:33.782Z,3.70
2018-03-23T05:26:00.038Z,3.80
2018-03-23T05:28:27.122Z,4.00
2018-03-23T05:30:53.698Z,4.20
2018-03-23T05:33:19.945Z,4.20
2018-03-23T05:35:46.143Z,4.00
2018-03-23T05:38:12.370Z,4.00
2018-03-23T05:40:38.626Z,4.10
2018-03-23T05:43:04.840Z,4.10
2018-03-23T05:45:31.067Z,4.20
2018-03-23T05:47:57.358Z,4.30
2018-03-23T05:50:23.950Z,4.20
2018-03-23T05:52:50.163Z,4.20
2018-03-23T05:55:16.391Z,4.40
2018-03-23T05:57:42.634Z,4.60
2018-03-23T06:00:10.222Z,4.50
2018-03-23T06:02:36.444Z,4.40
2018-03-23T06:05:02.686Z,4.10
2018-03-23T06:07:29.687Z,4.30
2018-03-23T06:09:56.160Z,4.40
2018-03-23T06:12:22.771Z,4.20
2018-03-23T06:14:48.971Z,4.20
2018-03-23T06:17:15.447Z,4.30
2018-03-23T06:19:41.647Z,4.40
2018-03-23T06:22:07.832Z,4.40
2018-03-23T06:24:34.042Z,4.60
2018-03-23T06:27:00.610Z,4.60
2018-03-23T06:29:26.811Z,4.60
2018-03-23T06:31:53.380Z,4.50
2018-03-23T06:34:19.606Z,4.50
2018-03-23T06:36:45.797Z,4.60
2018-03-23T06:39:12.794Z,4.00
2018-03-23T06:41:39.027Z,4.00
2018-03-23T06:44:05.212Z,3.90
2018-03-23T06:46:31.439Z,3.90
2018-03-23T06:48:57.626Z,3.90
2018-03-23T06:51:23.831Z,3.90
2018-03-23T06:53:50.046Z,4.10
2018-03-23T06:56:16.235Z,4.00
2018-03-23T06:58:42.796Z,4.30
2018-03-23T07:01:09.011Z,4.20
2018-03-23T07:03:35.212Z,4.40
2018-03-23T07:06:01.396Z,4.50
2018-03-23T07:08:27.609Z,4.60
2018-03-23T07:10:53.846Z,4.60
2018-03-23T07:13:20.053Z,4.70
2018-03-23T07:15:46.268Z,4.80
2018-03-23T07:18:12.856Z,4.80
2018-03-23T07:20:39.578Z,4.80
2018-03-23T07:23:06.208Z,4.40
2018-03-23T07:25:32.426Z,4.40
2018-03-23T07:27:58.627Z,4.30
2018-03-23T07:30:25.208Z,4.60
2018-03-23T07:32:51.426Z,4.60
2018-03-23T07:35:17.610Z,4.30
2018-03-23T07:37:43.872Z,4.30
2018-03-23T07:40:10.098Z,4.50
2018-03-23T07:42:36.288Z,4.80
2018-03-23T07:45:02.571Z,5.10
2018-03-23T07:47:28.744Z,5.00
2018-03-23T07:49:54.974Z,4.70
2018-03-23T07:52:21.950Z,4.60
2018-03-23T07:54:49.562Z,4.50
2018-03-23T07:57:15.747Z,4.70
2018-03-23T07:59:41.950Z,4.90
2018-03-23T08:02:08.166Z,5.00
2018-03-23T08:04:34.438Z,5.20
2018-03-23T08:07:00.691Z,5.10
2018-03-23T08:09:27.395Z,4.90
2018-03-23T08:11:53.693Z,5.20
2018-03-23T08:14:19.885Z,5.40
2018-03-23T08:16:46.127Z,5.60
2018-03-23T08:19:12.865Z,5.30
2018-03-23T08:21:39.103Z,5.40
2018-03-23T08:24:05.974Z,5.50
2018-03-23T08:26:32.613Z,5.60
2018-03-23T08:28:59.210Z,5.80
2018-03-23T08:31:25.491Z,5.80
2018-03-23T08:33:51.743Z,5.70
2018-03-23T08:36:17.981Z,5.60
2018-03-23T08:38:44.193Z,5.70
2018-03-23T08:41:10.724Z,5.80
2018-03-23T08:43:36.960Z,5.60
2018-03-23T08:46:10.138Z,5.80
2018-03-23T08:48:36.414Z,5.90
2018-03-23T08:51:02.660Z,5.80
2018-03-23T08:53:29.401Z,5.60
2018-03-23T08:55:55.635Z,5.60
2018-03-23T08:58:21.875Z,5.30
2018-03-23T09:00:48.110Z,5.40
2018-03-23T09:03:14.366Z,5.60
2018-03-23T09:05:40.888Z,5.70
2018-03-23T09:08:13.982Z,5.50
2018-03-23T09:10:40.216Z,5.60
2018-03-23T09:13:06.516Z,5.70
2018-03-23T09:15:32.738Z,6.00
2018-03-23T09:17:58.968Z,6.10
2018-03-23T09:20:25.600Z,6.30
2018-03-23T09:22:52.175Z,6.40
2018-03-23T09:25:18.954Z,6.40
2018-03-23T09:27:45.175Z,6.20
2018-03-23T09:30:11.420Z,6.50
2018-03-23T09:32:37.641Z,7.00
2018-03-23T09:35:03.890Z,7.00
2018-03-23T09:37:30.134Z,7.20
2018-03-23T09:39:56.388Z,7.50
2018-03-23T09:42:22.689Z,7.80
2018-03-23T09:44:48.914Z,7.70
2018-03-23T09:47:15.161Z,7.60
2018-03-23T09:49:41.387Z,7.50
2018-03-23T09:52:07.662Z,7.50
2018-03-23T09:54:33.875Z,7.40
2018-03-23T09:57:00.102Z,7.50
2018-03-23T09:59:26.308Z,7.80
2018-03-23T10:01:52.573Z,8.00
2018-03-23T10:04:18.781Z,8.00
2018-03-23T10:06:44.999Z,7.90
2018-03-23T10:09:11.237Z,8.20
2018-03-23T10:11:37.454Z,7.90
2018-03-23T10:14:03.753Z,7.80
2018-03-23T10:16:30.040Z,7.40
2018-03-23T10:18:56.248Z,7.60
2018-03-23T10:21:22.505Z,7.50
2018-03-23T10:23:48.735Z,7.40
2018-03-23T10:26:15.763Z,7.50
2018-03-23T10:28:42.066Z,7.60
2018-03-23T10:31:08.288Z,7.60
2018-03-23T10:33:34.507Z,8.00
2018-03-23T10:36:00.731Z,7.90
2018-03-23T10:38:27.034Z,8.20
2018-03-23T10:40:53.252Z,8.40
2018-03-23T10:43:19.529Z,8.40
2018-03-23T10:45:45.838Z,8.10
2018-03-23T10:48:12.085Z,8.20
2018-03-23T10:50:38.303Z,7.90
2018-03-23T10:53:04.885Z,8.10
2018-03-23T10:55:31.156Z,8.00
2018-03-23T10:57:57.787Z,8.00
2018-03-23T11:00:30.398Z,8.20
2018-03-23T11:02:56.676Z,8.20
2018-03-23T11:05:22.917Z,8.30
2018-03-23T11:07:49.153Z,8.50
2018-03-23T11:10:15.379Z,8.40
2018-03-23T11:12:41.601Z,8.20
2018-03-23T11:15:07.865Z,8.00
2018-03-23T11:17:34.088Z,8.00
2018-03-23T11:20:00.312Z,8.20
2018-03-23T11:22:26.575Z,8.30
2018-03-23T11:24:54.104Z,8.20
2018-03-23T11:27:20.340Z,8.30
2018-03-23T11:29:46.601Z,8.30
2018-03-23T11:32:13.170Z,8.00
2018-03-23T11:34:39.411Z,7.80
2018-03-23T11:37:05.759Z,7.90
2018-03-23T11:39:32.354Z,8.10
2018-03-23T11:41:58.586Z,8.10
2018-03-23T11:44:24.870Z,8.30
2018-03-23T11:46:51.125Z,8.40
2018-03-23T11:49:17.340Z,8.90
2018-03-23T11:51:43.611Z,8.80
2018-03-23T11:54:10.283Z,9.00
2018-03-23T11:56:36.547Z,9.00
2018-03-23T11:59:02.808Z,8.80
2018-03-23T12:01:29.703Z,8.90
2018-03-23T12:03:55.945Z,8.90
2018-03-23T12:06:22.210Z,9.00
2018-03-23T12:08:49.123Z,8.50
2018-03-23T12:11:15.389Z,8.50
2018-03-23T12:13:41.648Z,8.40
2018-03-23T12:16:08.204Z,8.70
2018-03-23T12:18:34.450Z,8.60
2018-03-23T12:21:00.963Z,8.50
2018-03-23T12:23:27.241Z,8.60
2018-03-23T12:25:53.805Z,9.00
2018-03-23T12:28:20.061Z,9.00
2018-03-23T12:30:46.370Z,9.30
2018-03-23T12:33:12.611Z,9.40
2018-03-23T12:35:38.846Z,9.50
2018-03-23T12:38:05.146Z,9.50
2018-03-23T12:40:31.376Z,9.70
2018-03-23T12:42:57.649Z,9.40
2018-03-23T12:45:23.932Z,9.40
2018-03-23T12:47:50.186Z,9.10
2018-03-23T12:50:16.464Z,9.00
2018-03-23T12:52:43.051Z,8.80
2018-03-23T12:55:09.271Z,8.80
2018-03-23T12:57:35.536Z,8.90
2018-03-23T13:00:01.746Z,9.30
2018-03-23T13:02:27.961Z,9.10
2018-03-23T13:04:54.263Z,9.20
2018-03-23T13:07:20.517Z,9.20
2018-03-23T13:09:46.847Z,9.10
2018-03-23T13:12:13.115Z,9.10
2018-03-23T13:14:40.007Z,9.20
2018-03-23T13:17:06.536Z,9.20
2018-03-23T13:19:33.746Z,9.00
2018-03-23T13:21:59.993Z,9.10
2018-03-23T13:24:26.232Z,8.70
2018-03-23T13:26:52.759Z,8.70
2018-03-23T13:29:18.997Z,8.50
2018-03-23T13:31:45.234Z,8.80
2018-03-23T13:34:11.472Z,8.70
2018-03-23T13:36:37.706Z,8.30
2018-03-23T13:39:04.596Z,8.00
2018-03-23T13:41:30.884Z,8.10
2018-03-23T13:43:57.176Z,8.20
2018-03-23T13:46:23.891Z,8.00
2018-03-23T13:48:50.341Z,7.90
2018-03-23T13:51:16.590Z,8.00
2018-03-23T13:53:42.852Z,8.20
2018-03-23T13:56:09.276Z,8.40
2018-03-23T13:58:44.717Z,8.50
2018-03-23T14:01:17.349Z,8.90
2018-03-23T14:03:43.952Z,9.20
2018-03-23T14:06:10.191Z,9.10
2018-03-23T14:08:36.762Z,9.30
2018-03-23T14:11:03.036Z,9.50
2018-03-23T14:13:29.317Z,9.30
2018-03-23T14:15:55.950Z,9.20
2018-03-23T14:18:22.546Z,9.30
2018-03-23T14:20:48.769Z,9.30
2018-03-23T14:23:15.039Z,9.40
2018-03-23T14:25:41.620Z,9.30
2018-03-23T14:28:07.871Z,9.20
2018-03-23T14:30:34.106Z,9.10
2018-03-23T14:33:00.367Z,9.10
2018-03-23T14:35:26.585Z,9.00
2018-03-23T14:37:53.223Z,8.90
2018-03-23T14:40:19.823Z,8.80
2018-03-23T14:42:46.053Z,8.80
2018-03-23T14:45:12.297Z,9.00
2018-03-23T14:47:38.530Z,9.00
2018-03-23T14:50:04.793Z,9.10
2018-03-23T14:52:31.035Z,8.80
2018-03-23T14:54:57.235Z,8.90
2018-03-23T14:57:23.829Z,8.90
2018-03-23T14:59:50.064Z,9.00
2018-03-23T15:02:16.290Z,9.10
2018-03-23T15:04:42.562Z,9.20
2018-03-23T15:07:09.190Z,8.80
2018-03-23T15:09:36.672Z,8.60
2018-03-23T15:12:03.053Z,8.60
2018-03-23T15:14:29.338Z,8.70
2018-03-23T15:16:55.610Z,8.80
2018-03-23T15:19:22.306Z,8.80
2018-03-23T15:21:48.576Z,8.80
2018-03-23T15:24:14.886Z,8.80
2018-03-23T15:26:41.179Z,8.70
2018-03-23T15:29:07.558Z,8.50
2018-03-23T15:31:33.856Z,8.50
2018-03-23T15:34:00.108Z,8.60
2018-03-23T15:36:26.347Z,8.70
2018-03-23T15:38:53.781Z,8.70
2018-03-23T15:41:20.051Z,8.80
2018-03-23T15:43:46.334Z,8.50
2018-03-23T15:46:13.301Z,8.60
2018-03-23T15:48:39.551Z,8.60
2018-03-23T15:51:05.855Z,8.60
2018-03-23T15:53:32.090Z,8.60
2018-03-23T15:55:58.371Z,8.60
2018-03-23T15:58:25.206Z,8.90
2018-03-23T16:00:51.515Z,9.10
2018-03-23T16:03:18.168Z,9.00
2018-03-23T16:05:44.790Z,8.90
2018-03-23T16:08:11.459Z,9.00
2018-03-23T16:10:37.735Z,9.00
2018-03-23T16:13:03.967Z,9.20
2018-03-23T16:15:30.238Z,9.10
2018-03-23T16:17:56.546Z,9.00
2018-03-23T16:20:22.804Z,8.90
2018-03-23T16:22:49.082Z,9.00
2018-03-23T16:25:15.400Z,8.90
2018-03-23T16:27:41.680Z,8.90
2018-03-23T16:30:08.327Z,8.60
2018-03-23T16:32:34.552Z,8.60
2018-03-23T16:35:00.842Z,8.50
2018-03-23T16:37:27.093Z,8.50
2018-03-23T16:39:53.361Z,8.70
2018-03-23T16:42:19.631Z,8.60
2018-03-23T16:44:45.873Z,8.80
2018-03-23T16:47:13.441Z,8.90
2018-03-23T16:49:39.753Z,8.90
2018-03-23T16:52:06.376Z,8.70
2018-03-23T16:54:32.626Z,8.70
2018-03-23T16:56:58.869Z,8.50
2018-03-23T16:59:25.126Z,8.30
2018-03-23T17:01:51.333Z,8.30
2018-03-23T17:04:17.553Z,8.50
2018-03-23T17:06:44.170Z,8.60
2018-03-23T17:09:10.424Z,8.60
2018-03-23T17:11:36.635Z,8.70
2018-03-23T17:14:02.951Z,8.70
2018-03-23T17:16:29.260Z,8.40
2018-03-23T17:18:55.522Z,8.50
2018-03-23T17:21:22.142Z,8.60
2018-03-23T17:23:48.413Z,8.60
2018-03-23T17:26:15.313Z,8.60
2018-03-23T17:28:41.651Z,8.60
2018-03-23T17:31:07.935Z,8.50
2018-03-23T17:33:34.173Z,8.50
2018-03-23T17:36:00.436Z,8.50
2018-03-23T17:38:26.686Z,8.40
2018-03-23T17:40:53.367Z,8.40
2018-03-23T17:43:20.388Z,8.40
2018-03-23T17:45:46.619Z,8.40
2018-03-23T17:48:12.922Z,8.40
2018-03-23T17:50:39.151Z,8.40
2018-03-23T17:53:05.808Z,8.30
2018-03-23T17:55:32.580Z,8.30
2018-03-23T17:57:59.047Z,8.30
2018-03-23T18:00:25.591Z,8.20
2018-03-23T18:02:52.018Z,8.20
2018-03-23T18:05:18.272Z,8.20
2018-03-23T18:07:45.138Z,8.10
2018-03-23T18:10:11.388Z,8.10
2018-03-23T18:12:37.858Z,8.10
2018-03-23T18:15:04.118Z,8.00
2018-03-23T18:17:30.409Z,8.00
2018-03-23T18:19:56.652Z,8.00
2018-03-23T18:22:23.257Z,7.70
2018-03-23T18:24:49.815Z,7.70
2018-03-23T18:27:16.025Z,7.70
2018-03-23T18:29:42.306Z,7.70
2018-03-23T18:32:08.569Z,7.70
2018-03-23T18:34:34.948Z,7.60
2018-03-23T18:37:01.381Z,7.70
2018-03-23T18:39:28.200Z,7.70
2018-03-23T18:41:54.482Z,7.70
2018-03-23T18:44:20.719Z,7.70
2018-03-23T18:46:47.265Z,7.70
2018-03-23T18:49:13.495Z,7.60
2018-03-23T18:51:39.754Z,7.50
2018-03-23T18:54:05.987Z,7.50
2018-03-23T18:56:32.200Z,7.60
2018-03-23T18:58:58.424Z,7.60
2018-03-23T19:01:24.664Z,7.60
2018-03-23T19:03:50.954Z,7.60
2018-03-23T19:06:17.194Z,7.60
2018-03-23T19:08:43.433Z,7.60
2018-03-23T19:11:09.728Z,7.50
2018-03-23T19:13:35.990Z,7.40
2018-03-23T19:16:02.269Z,7.40
2018-03-23T19:18:28.543Z,7.40
2018-03-23T19:20:54.834Z,7.40
2018-03-23T19:23:21.155Z,7.40
2018-03-23T19:25:47.376Z,7.30
2018-03-23T19:28:13.655Z,7.10
2018-03-23T19:30:39.908Z,7.20
2018-03-23T19:33:06.138Z,7.10
2018-03-23T19:35:32.405Z,7.10
2018-03-23T19:37:58.703Z,7.10
2018-03-23T19:40:25.013Z,7.20
2018-03-23T19:42:51.301Z,7.10
2018-03-23T19:45:17.575Z,7.10
2018-03-23T19:47:43.837Z,7.10
2018-03-23T19:50:10.105Z,7.10
2018-03-23T19:52:36.430Z,7.10
2018-03-23T19:55:02.709Z,7.10
2018-03-23T19:57:29.013Z,7.10
2018-03-23T19:59:55.594Z,7.00
2018-03-23T20:02:22.212Z,6.70
2018-03-23T20:04:48.492Z,6.80
2018-03-23T20:07:15.035Z,6.70
2018-03-23T20:09:41.297Z,6.70
2018-03-23T20:12:07.556Z,6.70
2018-03-23T20:14:34.192Z,6.60
2018-03-23T20:17:00.457Z,6.60
2018-03-23T20:19:26.671Z,6.60
2018-03-23T20:21:52.938Z,6.70
2018-03-23T20:24:25.317Z,6.70
2018-03-23T20:26:51.578Z,6.80
2018-03-23T20:29:18.290Z,6.80
2018-03-23T20:31:50.679Z,6.80
2018-03-23T20:34:16.945Z,6.80
2018-03-23T20:36:43.199Z,6.80
2018-03-23T20:39:09.463Z,6.80
2018-03-23T20:41:36.188Z,6.70
2018-03-23T20:44:02.452Z,6.70
2018-03-23T20:46:28.737Z,6.70
2018-03-23T20:48:55.008Z,6.60
2018-03-23T20:51:21.226Z,6.60
2018-03-23T20:53:47.901Z,6.50
2018-03-23T20:56:14.506Z,6.50
2018-03-23T20:58:41.151Z,6.30
2018-03-23T21:01:07.420Z,6.30
2018-03-23T21:03:34.700Z,6.30
2018-03-23T21:06:00.980Z,6.40
2018-03-23T21:08:27.300Z,6.40
2018-03-23T21:13:28.527Z,6.30
2018-03-23T21:15:54.802Z,6.30
2018-03-23T21:18:21.095Z,6.30
2018-03-23T21:20:47.385Z,6.20
2018-03-23T21:23:13.635Z,6.30
2018-03-23T21:25:39.982Z,6.40
2018-03-23T21:28:06.189Z,6.30
2018-03-23T21:30:32.432Z,6.30
2018-03-23T21:32:58.733Z,6.40
2018-03-23T21:35:24.978Z,6.20
2018-03-23T21:37:51.622Z,6.10
2018-03-23T21:40:18.054Z,6.20
2018-03-23T21:42:44.282Z,6.10
2018-03-23T21:45:10.515Z,5.90
2018-03-23T21:47:36.761Z,5.90
2018-03-23T21:50:05.877Z,6.10
2018-03-23T21:52:32.118Z,6.10
2018-03-23T21:54:58.448Z,6.30
2018-03-23T21:57:24.715Z,6.30
2018-03-23T21:59:50.927Z,6.40
2018-03-23T22:02:17.220Z,6.50
2018-03-23T22:04:43.475Z,6.50
2018-03-23T22:07:09.707Z,6.50
2018-03-23T22:09:35.973Z,6.60
2018-03-23T22:12:02.625Z,6.60
2018-03-23T22:14:28.842Z,6.60
2018-03-23T22:16:55.506Z,6.40
2018-03-23T22:19:21.784Z,6.40
2018-03-23T22:21:48.051Z,6.40
2018-03-23T22:24:14.648Z,6.50
2018-03-23T22:26:40.910Z,6.40
2018-03-23T22:29:07.561Z,6.60
2018-03-23T22:31:33.805Z,6.60
2018-03-23T22:34:00.412Z,6.60
2018-03-23T22:36:27.052Z,6.60
2018-03-23T22:38:53.669Z,6.60
2018-03-23T22:41:19.947Z,6.60
2018-03-23T22:43:46.193Z,6.60
2018-03-23T22:46:12.416Z,6.60
2018-03-23T22:48:38.701Z,6.70
2018-03-23T22:51:04.950Z,6.70
2018-03-23T22:53:31.196Z,6.80
2018-03-23T22:55:57.431Z,6.80
2018-03-23T22:58:23.697Z,6.80
2018-03-23T23:00:49.921Z,6.80
2018-03-23T23:03:16.146Z,6.70
2018-03-23T23:05:42.392Z,6.80
2018-03-23T23:08:09.003Z,6.90
2018-03-23T23:10:35.219Z,6.90
2018-03-23T23:13:01.433Z,6.90
2018-03-23T23:15:27.662Z,7.00
2018-03-23T23:17:53.955Z,7.10
2018-03-23T23:20:20.596Z,7.00
2018-03-23T23:22:47.193Z,7.00
2018-03-23T23:25:13.452Z,7.00
2018-03-23T23:27:40.073Z,7.10
2018-03-23T23:30:06.335Z,7.10
2018-03-23T23:32:32.565Z,6.90
2018-03-23T23:34:58.832Z,6.90
2018-03-23T23:37:25.072Z,6.90
2018-03-23T23:39:51.292Z,6.80
2018-03-23T23:42:17.537Z,6.70
2018-03-23T23:44:43.746Z,6.70
2018-03-23T23:47:09.956Z,6.70
2018-03-23T23:49:36.200Z,6.80
2018-03-23T23:52:02.410Z,6.70
2018-03-23T23:54:28.636Z,6.60
2018-03-23T23:56:55.211Z,6.50
2018-03-23T23:59:21.448Z,6.30
